Fowlersville, New York
Current Conditions -  °F | °C
As of 2:53 PM on Friday 26 Dec 2014 (Local Time) from KRME Reporting Station
Clear Clear  
Wind Chill: 39°   Ceiling: Unl
Heat Index: 42°   Visibility: 10mi
Dew Point: 30°   Wind: 5mph
Humidity: 62%   Direction: 220°SW
Pressure: 30.16"   Gusts: NA
Location:  43.6044°N, 75.2344°W
Report Text: KRME 261953Z 22004KT 10SM CLR 06/M01 A3016 RMK AO2 SLP216 T00561011
Loading
Personal Weather Stations






























Interactive Weather Map New forecast layout! Learn more

10-Day Weather Forecast

Advertisements
Track Severe Weather on mobile